createdAt,value
2018-10-01T00:00:20.100Z,11.12
2018-10-01T00:04:23.516Z,11.13
2018-10-01T00:08:26.920Z,11.11
2018-10-01T00:12:30.287Z,11.09
2018-10-01T00:16:33.676Z,11.02
2018-10-01T00:20:42.334Z,10.98
2018-10-01T09:30:41.020Z,12.76
2018-10-01T09:34:44.710Z,12.88
2018-10-01T09:38:48.484Z,12.97
2018-10-01T09:42:52.200Z,13.08
2018-10-01T09:46:55.916Z,13.13
2018-10-01T09:51:00.991Z,13.24
2018-10-01T09:55:04.819Z,13.35
2018-10-01T09:59:08.620Z,13.46
2018-10-01T10:03:12.804Z,13.51
2018-10-01T10:07:16.857Z,13.61
2018-10-01T10:11:22.001Z,13.72
2018-10-01T10:15:25.691Z,13.87
2018-10-01T10:19:29.367Z,14.00
2018-10-01T10:23:33.964Z,14.15
2018-10-01T10:27:38.636Z,14.27
2018-10-01T10:31:42.851Z,14.44
2018-10-01T10:35:46.438Z,14.53
2018-10-01T10:39:50.108Z,14.58
2018-10-01T10:43:55.103Z,14.65
2018-10-01T10:47:58.839Z,14.72
2018-10-01T10:52:04.591Z,14.76
2018-10-01T10:56:21.600Z,14.83
2018-10-01T11:00:45.442Z,14.96
2018-10-01T11:05:12.124Z,15.17
2018-10-01T11:13:59.161Z,15.46
2018-10-01T11:22:52.175Z,15.63
2018-10-01T11:27:03.818Z,15.59
2018-10-01T11:31:07.480Z,15.56
2018-10-01T11:35:13.705Z,15.55
2018-10-01T11:39:33.876Z,15.60
2018-10-01T11:48:25.674Z,15.72
2018-10-01T11:57:29.770Z,15.89
2018-10-01T12:43:25.875Z,16.22
2018-10-01T13:01:16.804Z,15.96
2018-10-01T13:09:58.364Z,15.88
2018-10-01T13:14:02.722Z,15.90
2018-10-01T13:50:12.699Z,15.97
2018-10-01T13:54:38.549Z,15.96
2018-10-01T13:58:42.027Z,15.91
2018-10-01T14:02:45.967Z,15.82
2018-10-01T14:06:50.447Z,15.77
2018-10-01T14:10:54.027Z,15.69
2018-10-01T14:14:57.732Z,15.59
2018-10-01T14:19:01.822Z,15.53
2018-10-01T14:23:06.114Z,15.48
2018-10-01T14:31:49.165Z,15.31
2018-10-01T14:40:08.549Z,15.16
2018-10-01T14:44:14.636Z,15.11
2018-10-01T14:48:18.372Z,15.06
2018-10-01T14:52:22.583Z,15.03
2018-10-01T15:01:05.000Z,14.81
2018-10-01T15:05:08.631Z,14.71
2018-10-01T15:09:14.748Z,14.58
2018-10-01T15:17:36.295Z,14.40
2018-10-01T15:21:41.887Z,14.35
2018-10-01T15:25:47.929Z,14.33
2018-10-01T15:29:52.692Z,14.28
2018-10-01T15:33:57.933Z,14.25
2018-10-01T15:38:03.378Z,14.19
2018-10-01T15:42:08.513Z,14.15
2018-10-01T15:46:14.637Z,14.13
2018-10-01T15:50:22.250Z,14.13
2018-10-01T15:54:26.415Z,14.11
2018-10-01T15:58:30.266Z,14.08
2018-10-01T16:02:35.406Z,14.04
2018-10-01T16:06:40.031Z,13.97
2018-10-01T16:10:45.764Z,13.87
2018-10-01T16:14:57.829Z,13.82
2018-10-01T16:19:03.511Z,13.78
2018-10-01T16:23:08.062Z,13.74
2018-10-01T16:27:13.067Z,13.67
2018-10-01T16:31:17.720Z,13.61
2018-10-01T16:35:25.139Z,13.60
2018-10-01T16:39:30.314Z,13.55
2018-10-01T16:43:34.915Z,13.49
2018-10-01T16:47:39.893Z,13.45
2018-10-01T16:51:46.197Z,13.41
2018-10-01T16:55:50.675Z,13.37
2018-10-01T16:59:55.878Z,13.35
2018-10-01T17:04:04.819Z,13.35
2018-10-01T17:08:13.543Z,13.30
2018-10-01T17:12:19.018Z,13.27
2018-10-01T18:25:47.545Z,13.06
2018-10-01T18:29:57.477Z,13.05
2018-10-01T18:34:02.699Z,13.05
2018-10-01T18:38:12.786Z,13.04
2018-10-01T18:42:17.054Z,13.05
2018-10-01T18:46:22.224Z,13.03
2018-10-01T18:50:26.228Z,13.00
2018-10-01T18:54:32.056Z,13.01
2018-10-01T18:58:36.562Z,13.01
2018-10-01T19:02:45.993Z,13.02
2018-10-01T19:06:50.629Z,13.02
2018-10-01T19:10:55.740Z,13.04
2018-10-01T19:14:59.992Z,13.04
2018-10-01T19:19:04.583Z,13.03
2018-10-01T19:23:08.681Z,13.00
2018-10-01T19:27:13.141Z,12.99
2018-10-01T19:31:20.953Z,12.96
